sensor_id;sensor_type;location;lat;lon;timestamp;P1;durP1;ratioP1;P2;durP2;ratioP2
4889;SDS011;2459;42.268;23.112;2023-04-01T00:01:23;6.83;;;2.83;;
4889;SDS011;2459;42.268;23.112;2023-04-01T00:03:50;12.17;;;2.37;;
4889;SDS011;2459;42.268;23.112;2023-04-01T00:06:17;10.90;;;2.40;;
4889;SDS011;2459;42.268;23.112;2023-04-01T00:08:44;9.33;;;2.20;;
4889;SDS011;2459;42.268;23.112;2023-04-01T00:11:11;4.17;;;2.60;;
4889;SDS011;2459;42.268;23.112;2023-04-01T00:13:39;7.80;;;2.70;;
4889;SDS011;2459;42.268;23.112;2023-04-01T00:16:06;6.93;;;3.00;;
4889;SDS011;2459;42.268;23.112;2023-04-01T00:18:32;6.70;;;2.80;;
4889;SDS011;2459;42.268;23.112;2023-04-01T00:20:59;7.53;;;3.67;;
4889;SDS011;2459;42.268;23.112;2023-04-01T00:23:26;10.23;;;3.93;;
4889;SDS011;2459;42.268;23.112;2023-04-01T00:25:52;4.90;;;2.40;;
4889;SDS011;2459;42.268;23.112;2023-04-01T00:28:21;7.63;;;3.33;;
4889;SDS011;2459;42.268;23.112;2023-04-01T00:30:49;8.73;;;3.33;;
4889;SDS011;2459;42.268;23.112;2023-04-01T00:33:16;9.83;;;2.60;;
4889;SDS011;2459;42.268;23.112;2023-04-01T00:35:43;8.00;;;3.17;;
4889;SDS011;2459;42.268;23.112;2023-04-01T00:38:09;7.67;;;3.40;;
4889;SDS011;2459;42.268;23.112;2023-04-01T00:40:37;13.67;;;3.30;;
4889;SDS011;2459;42.268;23.112;2023-04-01T00:43:08;11.40;;;2.87;;
4889;SDS011;2459;42.268;23.112;2023-04-01T00:45:38;9.17;;;3.00;;
4889;SDS011;2459;42.268;23.112;2023-04-01T00:48:07;9.37;;;2.93;;
4889;SDS011;2459;42.268;23.112;2023-04-01T00:50:35;8.87;;;3.60;;
4889;SDS011;2459;42.268;23.112;2023-04-01T00:53:03;5.03;;;2.70;;
4889;SDS011;2459;42.268;23.112;2023-04-01T00:55:30;6.70;;;2.43;;
4889;SDS011;2459;42.268;23.112;2023-04-01T00:58:01;15.87;;;2.93;;
4889;SDS011;2459;42.268;23.112;2023-04-01T01:00:28;4.77;;;2.97;;
4889;SDS011;2459;42.268;23.112;2023-04-01T01:02:56;6.80;;;2.83;;
4889;SDS011;2459;42.268;23.112;2023-04-01T01:05:26;14.87;;;2.20;;
4889;SDS011;2459;42.268;23.112;2023-04-01T01:08:00;9.10;;;2.30;;
4889;SDS011;2459;42.268;23.112;2023-04-01T01:10:30;12.43;;;2.77;;
4889;SDS011;2459;42.268;23.112;2023-04-01T01:12:59;4.87;;;2.40;;
4889;SDS011;2459;42.268;23.112;2023-04-01T01:15:29;9.77;;;2.40;;
4889;SDS011;2459;42.268;23.112;2023-04-01T01:18:00;8.57;;;2.97;;
4889;SDS011;2459;42.268;23.112;2023-04-01T01:20:41;7.60;;;3.20;;
4889;SDS011;2459;42.268;23.112;2023-04-01T01:25:58;7.97;;;2.40;;
4889;SDS011;2459;42.268;23.112;2023-04-01T01:28:36;4.90;;;2.53;;
4889;SDS011;2459;42.268;23.112;2023-04-01T01:31:12;11.27;;;2.93;;
4889;SDS011;2459;42.268;23.112;2023-04-01T01:33:52;9.27;;;3.27;;
4889;SDS011;2459;42.268;23.112;2023-04-01T01:36:23;6.37;;;2.87;;
4889;SDS011;2459;42.268;23.112;2023-04-01T01:38:53;18.53;;;3.23;;
4889;SDS011;2459;42.268;23.112;2023-04-01T01:41:24;6.60;;;3.00;;
4889;SDS011;2459;42.268;23.112;2023-04-01T01:43:51;11.93;;;2.60;;
4889;SDS011;2459;42.268;23.112;2023-04-01T01:46:21;8.60;;;3.07;;
4889;SDS011;2459;42.268;23.112;2023-04-01T01:48:48;6.03;;;2.83;;
4889;SDS011;2459;42.268;23.112;2023-04-01T01:51:20;9.73;;;2.83;;
4889;SDS011;2459;42.268;23.112;2023-04-01T01:53:48;4.70;;;2.60;;
4889;SDS011;2459;42.268;23.112;2023-04-01T01:56:15;8.33;;;3.87;;
4889;SDS011;2459;42.268;23.112;2023-04-01T01:58:44;8.93;;;2.93;;
4889;SDS011;2459;42.268;23.112;2023-04-01T02:01:11;3.30;;;2.10;;
4889;SDS011;2459;42.268;23.112;2023-04-01T02:03:45;7.63;;;3.20;;
4889;SDS011;2459;42.268;23.112;2023-04-01T02:06:13;8.67;;;3.20;;
4889;SDS011;2459;42.268;23.112;2023-04-01T02:08:44;7.97;;;2.57;;
4889;SDS011;2459;42.268;23.112;2023-04-01T02:11:18;11.43;;;3.37;;
4889;SDS011;2459;42.268;23.112;2023-04-01T02:13:48;7.50;;;2.70;;
4889;SDS011;2459;42.268;23.112;2023-04-01T02:16:17;10.83;;;3.40;;
4889;SDS011;2459;42.268;23.112;2023-04-01T02:18:46;21.90;;;3.93;;
4889;SDS011;2459;42.268;23.112;2023-04-01T02:21:14;13.13;;;3.70;;
4889;SDS011;2459;42.268;23.112;2023-04-01T02:23:41;15.20;;;7.17;;
4889;SDS011;2459;42.268;23.112;2023-04-01T02:26:08;7.27;;;3.87;;
4889;SDS011;2459;42.268;23.112;2023-04-01T02:28:37;20.10;;;4.17;;
4889;SDS011;2459;42.268;23.112;2023-04-01T02:31:05;12.10;;;3.13;;
4889;SDS011;2459;42.268;23.112;2023-04-01T02:33:33;9.13;;;2.50;;
4889;SDS011;2459;42.268;23.112;2023-04-01T02:36:01;4.43;;;2.70;;
4889;SDS011;2459;42.268;23.112;2023-04-01T02:38:28;11.10;;;3.50;;
4889;SDS011;2459;42.268;23.112;2023-04-01T02:40:58;13.10;;;5.77;;
4889;SDS011;2459;42.268;23.112;2023-04-01T02:43:25;42.53;;;15.20;;
4889;SDS011;2459;42.268;23.112;2023-04-01T02:45:53;31.17;;;8.53;;
4889;SDS011;2459;42.268;23.112;2023-04-01T02:48:23;12.30;;;4.80;;
4889;SDS011;2459;42.268;23.112;2023-04-01T02:50:49;5.50;;;2.47;;
4889;SDS011;2459;42.268;23.112;2023-04-01T02:53:16;7.77;;;2.53;;
4889;SDS011;2459;42.268;23.112;2023-04-01T02:55:43;11.87;;;3.23;;
4889;SDS011;2459;42.268;23.112;2023-04-01T02:58:10;14.13;;;3.20;;
4889;SDS011;2459;42.268;23.112;2023-04-01T03:00:36;12.30;;;4.00;;
4889;SDS011;2459;42.268;23.112;2023-04-01T03:03:04;21.40;;;4.50;;
4889;SDS011;2459;42.268;23.112;2023-04-01T03:05:31;17.13;;;4.40;;
4889;SDS011;2459;42.268;23.112;2023-04-01T03:07:58;13.97;;;5.37;;
4889;SDS011;2459;42.268;23.112;2023-04-01T03:10:24;10.00;;;3.70;;
4889;SDS011;2459;42.268;23.112;2023-04-01T03:12:54;8.57;;;3.23;;
4889;SDS011;2459;42.268;23.112;2023-04-01T03:15:20;6.00;;;2.90;;
4889;SDS011;2459;42.268;23.112;2023-04-01T03:17:47;7.63;;;2.50;;
4889;SDS011;2459;42.268;23.112;2023-04-01T03:20:17;14.33;;;2.73;;
4889;SDS011;2459;42.268;23.112;2023-04-01T03:22:44;6.50;;;2.77;;
4889;SDS011;2459;42.268;23.112;2023-04-01T03:25:11;12.40;;;2.70;;
4889;SDS011;2459;42.268;23.112;2023-04-01T03:27:37;9.00;;;2.90;;
4889;SDS011;2459;42.268;23.112;2023-04-01T03:30:05;15.13;;;3.10;;
4889;SDS011;2459;42.268;23.112;2023-04-01T03:32:31;17.30;;;5.20;;
4889;SDS011;2459;42.268;23.112;2023-04-01T03:34:58;7.97;;;3.60;;
4889;SDS011;2459;42.268;23.112;2023-04-01T03:37:28;9.20;;;3.37;;
4889;SDS011;2459;42.268;23.112;2023-04-01T03:39:57;14.83;;;2.60;;
4889;SDS011;2459;42.268;23.112;2023-04-01T03:42:24;2.73;;;2.50;;
4889;SDS011;2459;42.268;23.112;2023-04-01T03:44:50;14.53;;;2.87;;
4889;SDS011;2459;42.268;23.112;2023-04-01T03:47:17;8.00;;;2.87;;
4889;SDS011;2459;42.268;23.112;2023-04-01T03:49:43;9.93;;;2.93;;
4889;SDS011;2459;42.268;23.112;2023-04-01T03:52:10;3.50;;;3.13;;
4889;SDS011;2459;42.268;23.112;2023-04-01T03:54:40;8.47;;;3.70;;
4889;SDS011;2459;42.268;23.112;2023-04-01T03:57:07;17.93;;;4.13;;
4889;SDS011;2459;42.268;23.112;2023-04-01T03:59:33;12.20;;;3.97;;
4889;SDS011;2459;42.268;23.112;2023-04-01T04:02:01;9.20;;;3.80;;
4889;SDS011;2459;42.268;23.112;2023-04-01T04:04:30;19.97;;;5.10;;
4889;SDS011;2459;42.268;23.112;2023-04-01T04:06:57;16.33;;;5.17;;
4889;SDS011;2459;42.268;23.112;2023-04-01T04:09:24;8.40;;;3.90;;
4889;SDS011;2459;42.268;23.112;2023-04-01T04:11:52;12.53;;;5.00;;
4889;SDS011;2459;42.268;23.112;2023-04-01T04:14:18;6.37;;;3.70;;
4889;SDS011;2459;42.268;23.112;2023-04-01T04:16:45;20.97;;;4.00;;
4889;SDS011;2459;42.268;23.112;2023-04-01T04:19:13;9.10;;;3.80;;
4889;SDS011;2459;42.268;23.112;2023-04-01T04:21:40;4.40;;;2.67;;
4889;SDS011;2459;42.268;23.112;2023-04-01T04:24:07;10.40;;;3.23;;
4889;SDS011;2459;42.268;23.112;2023-04-01T04:26:33;10.13;;;3.00;;
4889;SDS011;2459;42.268;23.112;2023-04-01T04:29:02;9.20;;;3.50;;
4889;SDS011;2459;42.268;23.112;2023-04-01T04:31:30;13.87;;;3.70;;
4889;SDS011;2459;42.268;23.112;2023-04-01T04:33:58;10.00;;;3.30;;
4889;SDS011;2459;42.268;23.112;2023-04-01T04:36:25;7.50;;;3.03;;
4889;SDS011;2459;42.268;23.112;2023-04-01T04:38:51;19.40;;;4.60;;
4889;SDS011;2459;42.268;23.112;2023-04-01T04:41:18;14.63;;;4.83;;
4889;SDS011;2459;42.268;23.112;2023-04-01T04:43:49;27.63;;;7.30;;
4889;SDS011;2459;42.268;23.112;2023-04-01T04:46:17;17.23;;;5.43;;
4889;SDS011;2459;42.268;23.112;2023-04-01T04:48:44;20.87;;;5.80;;
4889;SDS011;2459;42.268;23.112;2023-04-01T04:51:12;12.70;;;3.90;;
4889;SDS011;2459;42.268;23.112;2023-04-01T04:53:39;8.77;;;3.17;;
4889;SDS011;2459;42.268;23.112;2023-04-01T04:56:06;21.53;;;3.90;;
4889;SDS011;2459;42.268;23.112;2023-04-01T04:58:32;11.07;;;3.67;;
4889;SDS011;2459;42.268;23.112;2023-04-01T05:00:59;14.70;;;4.53;;
4889;SDS011;2459;42.268;23.112;2023-04-01T05:03:35;22.97;;;4.33;;
4889;SDS011;2459;42.268;23.112;2023-04-01T05:06:01;7.63;;;3.63;;
4889;SDS011;2459;42.268;23.112;2023-04-01T05:08:28;8.70;;;3.40;;
4889;SDS011;2459;42.268;23.112;2023-04-01T05:10:54;10.50;;;3.27;;
4889;SDS011;2459;42.268;23.112;2023-04-01T05:13:27;7.20;;;4.00;;
4889;SDS011;2459;42.268;23.112;2023-04-01T05:15:53;8.97;;;3.10;;
4889;SDS011;2459;42.268;23.112;2023-04-01T05:18:20;10.10;;;4.30;;
4889;SDS011;2459;42.268;23.112;2023-04-01T05:20:56;8.57;;;3.60;;
4889;SDS011;2459;42.268;23.112;2023-04-01T05:23:23;9.47;;;4.00;;
4889;SDS011;2459;42.268;23.112;2023-04-01T05:25:49;14.13;;;4.43;;
4889;SDS011;2459;42.268;23.112;2023-04-01T05:28:16;13.13;;;4.80;;
4889;SDS011;2459;42.268;23.112;2023-04-01T05:30:43;15.83;;;4.03;;
4889;SDS011;2459;42.268;23.112;2023-04-01T05:33:10;15.03;;;4.47;;
4889;SDS011;2459;42.268;23.112;2023-04-01T05:35:37;16.27;;;5.67;;
4889;SDS011;2459;42.268;23.112;2023-04-01T05:38:05;9.30;;;4.00;;
4889;SDS011;2459;42.268;23.112;2023-04-01T05:40:31;4.03;;;2.53;;
4889;SDS011;2459;42.268;23.112;2023-04-01T05:43:03;13.43;;;4.73;;
4889;SDS011;2459;42.268;23.112;2023-04-01T05:45:32;21.27;;;4.33;;
4889;SDS011;2459;42.268;23.112;2023-04-01T05:48:01;14.73;;;3.10;;
4889;SDS011;2459;42.268;23.112;2023-04-01T05:50:27;25.03;;;5.20;;
4889;SDS011;2459;42.268;23.112;2023-04-01T05:52:54;8.23;;;3.17;;
4889;SDS011;2459;42.268;23.112;2023-04-01T05:55:22;9.03;;;4.10;;
4889;SDS011;2459;42.268;23.112;2023-04-01T05:57:48;6.97;;;3.63;;
4889;SDS011;2459;42.268;23.112;2023-04-01T06:00:15;14.37;;;2.70;;
4889;SDS011;2459;42.268;23.112;2023-04-01T06:02:42;10.53;;;3.63;;
4889;SDS011;2459;42.268;23.112;2023-04-01T06:05:12;11.53;;;3.53;;
4889;SDS011;2459;42.268;23.112;2023-04-01T06:07:39;12.67;;;3.57;;
4889;SDS011;2459;42.268;23.112;2023-04-01T06:10:10;11.23;;;3.43;;
4889;SDS011;2459;42.268;23.112;2023-04-01T06:12:41;11.13;;;2.60;;
4889;SDS011;2459;42.268;23.112;2023-04-01T06:15:13;9.60;;;2.90;;
4889;SDS011;2459;42.268;23.112;2023-04-01T06:17:45;3.63;;;2.50;;
4889;SDS011;2459;42.268;23.112;2023-04-01T06:20:16;6.90;;;3.60;;
4889;SDS011;2459;42.268;23.112;2023-04-01T06:22:49;10.13;;;3.30;;
4889;SDS011;2459;42.268;23.112;2023-04-01T06:25:21;20.80;;;3.77;;
4889;SDS011;2459;42.268;23.112;2023-04-01T06:27:54;11.47;;;3.13;;
4889;SDS011;2459;42.268;23.112;2023-04-01T06:30:30;9.90;;;3.23;;
4889;SDS011;2459;42.268;23.112;2023-04-01T06:33:01;5.90;;;2.80;;
4889;SDS011;2459;42.268;23.112;2023-04-01T06:35:40;6.80;;;3.10;;
4889;SDS011;2459;42.268;23.112;2023-04-01T06:38:27;11.90;;;3.77;;
4889;SDS011;2459;42.268;23.112;2023-04-01T06:41:30;8.53;;;2.83;;
4889;SDS011;2459;42.268;23.112;2023-04-01T06:44:06;10.80;;;3.63;;
4889;SDS011;2459;42.268;23.112;2023-04-01T06:46:37;3.80;;;2.60;;
4889;SDS011;2459;42.268;23.112;2023-04-01T06:49:15;9.60;;;3.20;;
4889;SDS011;2459;42.268;23.112;2023-04-01T06:51:45;17.47;;;4.77;;
4889;SDS011;2459;42.268;23.112;2023-04-01T06:54:15;19.73;;;3.33;;
4889;SDS011;2459;42.268;23.112;2023-04-01T06:56:44;18.07;;;3.40;;
4889;SDS011;2459;42.268;23.112;2023-04-01T06:59:14;4.83;;;3.00;;
4889;SDS011;2459;42.268;23.112;2023-04-01T07:01:42;18.13;;;3.93;;
4889;SDS011;2459;42.268;23.112;2023-04-01T07:04:11;6.00;;;2.63;;
4889;SDS011;2459;42.268;23.112;2023-04-01T07:06:40;12.53;;;2.93;;
4889;SDS011;2459;42.268;23.112;2023-04-01T07:09:10;12.37;;;4.20;;
4889;SDS011;2459;42.268;23.112;2023-04-01T07:11:38;14.67;;;3.93;;
4889;SDS011;2459;42.268;23.112;2023-04-01T07:14:06;9.57;;;3.90;;
4889;SDS011;2459;42.268;23.112;2023-04-01T07:16:39;10.27;;;3.87;;
4889;SDS011;2459;42.268;23.112;2023-04-01T07:19:08;3.93;;;2.97;;
4889;SDS011;2459;42.268;23.112;2023-04-01T07:21:40;15.83;;;4.30;;
4889;SDS011;2459;42.268;23.112;2023-04-01T07:24:10;18.57;;;5.40;;
4889;SDS011;2459;42.268;23.112;2023-04-01T07:26:39;14.30;;;4.80;;
4889;SDS011;2459;42.268;23.112;2023-04-01T07:29:09;15.20;;;5.70;;
4889;SDS011;2459;42.268;23.112;2023-04-01T07:31:42;11.17;;;4.83;;
4889;SDS011;2459;42.268;23.112;2023-04-01T07:34:12;10.03;;;4.20;;
4889;SDS011;2459;42.268;23.112;2023-04-01T07:36:45;9.40;;;3.67;;
4889;SDS011;2459;42.268;23.112;2023-04-01T07:39:17;20.33;;;5.40;;
4889;SDS011;2459;42.268;23.112;2023-04-01T07:41:50;19.87;;;5.83;;
4889;SDS011;2459;42.268;23.112;2023-04-01T07:44:20;14.73;;;4.60;;
4889;SDS011;2459;42.268;23.112;2023-04-01T07:47:05;7.27;;;3.67;;
4889;SDS011;2459;42.268;23.112;2023-04-01T07:49:40;13.00;;;4.73;;
4889;SDS011;2459;42.268;23.112;2023-04-01T07:52:11;9.37;;;4.23;;
4889;SDS011;2459;42.268;23.112;2023-04-01T07:54:42;11.80;;;2.97;;
4889;SDS011;2459;42.268;23.112;2023-04-01T07:57:12;14.53;;;4.13;;
4889;SDS011;2459;42.268;23.112;2023-04-01T07:59:43;11.93;;;3.40;;
4889;SDS011;2459;42.268;23.112;2023-04-01T08:02:17;7.87;;;3.80;;
4889;SDS011;2459;42.268;23.112;2023-04-01T08:04:48;8.10;;;3.90;;
4889;SDS011;2459;42.268;23.112;2023-04-01T08:07:20;5.80;;;2.93;;
4889;SDS011;2459;42.268;23.112;2023-04-01T08:09:48;8.60;;;3.07;;
4889;SDS011;2459;42.268;23.112;2023-04-01T08:12:20;25.47;;;6.10;;
4889;SDS011;2459;42.268;23.112;2023-04-01T08:14:52;18.23;;;5.13;;
4889;SDS011;2459;42.268;23.112;2023-04-01T08:17:22;13.10;;;4.27;;
4889;SDS011;2459;42.268;23.112;2023-04-01T08:19:56;10.47;;;3.57;;
4889;SDS011;2459;42.268;23.112;2023-04-01T08:22:26;21.07;;;3.13;;
4889;SDS011;2459;42.268;23.112;2023-04-01T08:24:53;6.63;;;3.50;;
4889;SDS011;2459;42.268;23.112;2023-04-01T08:27:26;14.00;;;5.60;;
4889;SDS011;2459;42.268;23.112;2023-04-01T08:29:56;5.03;;;2.80;;
4889;SDS011;2459;42.268;23.112;2023-04-01T08:32:25;19.00;;;3.67;;
4889;SDS011;2459;42.268;23.112;2023-04-01T08:34:56;11.13;;;3.90;;
4889;SDS011;2459;42.268;23.112;2023-04-01T08:37:25;14.83;;;3.80;;
4889;SDS011;2459;42.268;23.112;2023-04-01T08:39:55;10.93;;;3.50;;
4889;SDS011;2459;42.268;23.112;2023-04-01T08:42:29;11.23;;;4.70;;
4889;SDS011;2459;42.268;23.112;2023-04-01T08:45:01;14.57;;;3.50;;
4889;SDS011;2459;42.268;23.112;2023-04-01T08:47:44;19.50;;;4.10;;
4889;SDS011;2459;42.268;23.112;2023-04-01T08:50:23;15.67;;;2.87;;
4889;SDS011;2459;42.268;23.112;2023-04-01T08:52:52;18.43;;;4.23;;
4889;SDS011;2459;42.268;23.112;2023-04-01T08:55:27;9.17;;;3.17;;
4889;SDS011;2459;42.268;23.112;2023-04-01T09:00:46;6.80;;;2.60;;
4889;SDS011;2459;42.268;23.112;2023-04-01T09:03:22;23.50;;;3.93;;
4889;SDS011;2459;42.268;23.112;2023-04-01T09:08:41;9.10;;;3.73;;
4889;SDS011;2459;42.268;23.112;2023-04-01T09:11:17;11.63;;;2.80;;
4889;SDS011;2459;42.268;23.112;2023-04-01T09:13:55;7.23;;;2.50;;
4889;SDS011;2459;42.268;23.112;2023-04-01T09:16:28;12.40;;;3.20;;
4889;SDS011;2459;42.268;23.112;2023-04-01T09:19:00;6.23;;;2.60;;
4889;SDS011;2459;42.268;23.112;2023-04-01T09:21:46;15.53;;;3.37;;
4889;SDS011;2459;42.268;23.112;2023-04-01T09:24:26;12.63;;;3.03;;
4889;SDS011;2459;42.268;23.112;2023-04-01T09:27:04;11.17;;;2.90;;
4889;SDS011;2459;42.268;23.112;2023-04-01T09:29:42;10.87;;;4.03;;
4889;SDS011;2459;42.268;23.112;2023-04-01T09:32:12;7.90;;;3.40;;
4889;SDS011;2459;42.268;23.112;2023-04-01T09:34:55;20.90;;;3.50;;
4889;SDS011;2459;42.268;23.112;2023-04-01T09:37:32;11.93;;;2.40;;
4889;SDS011;2459;42.268;23.112;2023-04-01T09:40:14;4.97;;;2.53;;
4889;SDS011;2459;42.268;23.112;2023-04-01T09:42:43;13.10;;;3.47;;
4889;SDS011;2459;42.268;23.112;2023-04-01T09:45:16;8.23;;;3.13;;
4889;SDS011;2459;42.268;23.112;2023-04-01T09:47:55;9.47;;;2.60;;
4889;SDS011;2459;42.268;23.112;2023-04-01T09:50:34;12.53;;;3.23;;
4889;SDS011;2459;42.268;23.112;2023-04-01T09:53:09;10.90;;;3.10;;
4889;SDS011;2459;42.268;23.112;2023-04-01T09:55:46;13.87;;;3.57;;
4889;SDS011;2459;42.268;23.112;2023-04-01T10:01:20;9.10;;;2.97;;
4889;SDS011;2459;42.268;23.112;2023-04-01T10:09:47;24.60;;;8.53;;
4889;SDS011;2459;42.268;23.112;2023-04-01T10:12:26;31.13;;;7.10;;
4889;SDS011;2459;42.268;23.112;2023-04-01T10:15:09;19.10;;;6.17;;
4889;SDS011;2459;42.268;23.112;2023-04-01T10:20:37;25.17;;;5.73;;
4889;SDS011;2459;42.268;23.112;2023-04-01T10:23:15;33.03;;;10.17;;
4889;SDS011;2459;42.268;23.112;2023-04-01T10:28:35;13.20;;;3.90;;
4889;SDS011;2459;42.268;23.112;2023-04-01T10:36:40;22.47;;;3.63;;
4889;SDS011;2459;42.268;23.112;2023-04-01T10:42:08;4.47;;;2.23;;
4889;SDS011;2459;42.268;23.112;2023-04-01T10:52:59;17.03;;;4.83;;
4889;SDS011;2459;42.268;23.112;2023-04-01T11:01:27;13.33;;;2.67;;
4889;SDS011;2459;42.268;23.112;2023-04-01T11:04:28;8.53;;;3.40;;
4889;SDS011;2459;42.268;23.112;2023-04-01T11:07:04;12.53;;;2.90;;
4889;SDS011;2459;42.268;23.112;2023-04-01T11:12:26;7.30;;;2.63;;
4889;SDS011;2459;42.268;23.112;2023-04-01T11:15:14;21.73;;;3.77;;
4889;SDS011;2459;42.268;23.112;2023-04-01T11:20:34;12.30;;;2.80;;
4889;SDS011;2459;42.268;23.112;2023-04-01T11:23:16;14.43;;;3.30;;
4889;SDS011;2459;42.268;23.112;2023-04-01T11:25:52;10.07;;;3.03;;
4889;SDS011;2459;42.268;23.112;2023-04-01T11:31:14;10.70;;;3.37;;
4889;SDS011;2459;42.268;23.112;2023-04-01T11:33:43;17.70;;;4.60;;
4889;SDS011;2459;42.268;23.112;2023-04-01T11:36:20;18.97;;;3.10;;
4889;SDS011;2459;42.268;23.112;2023-04-01T11:38:57;20.20;;;4.97;;
4889;SDS011;2459;42.268;23.112;2023-04-01T11:41:30;18.57;;;2.77;;
4889;SDS011;2459;42.268;23.112;2023-04-01T11:44:04;22.03;;;3.57;;
4889;SDS011;2459;42.268;23.112;2023-04-01T11:46:39;27.53;;;6.17;;
4889;SDS011;2459;42.268;23.112;2023-04-01T11:49:14;30.13;;;6.37;;
4889;SDS011;2459;42.268;23.112;2023-04-01T11:51:50;23.03;;;4.20;;
4889;SDS011;2459;42.268;23.112;2023-04-01T11:54:26;19.47;;;5.10;;
4889;SDS011;2459;42.268;23.112;2023-04-01T11:56:59;7.80;;;3.17;;
4889;SDS011;2459;42.268;23.112;2023-04-01T11:59:45;23.60;;;4.30;;
4889;SDS011;2459;42.268;23.112;2023-04-01T12:02:16;36.83;;;6.20;;
4889;SDS011;2459;42.268;23.112;2023-04-01T12:04:51;17.20;;;5.03;;
4889;SDS011;2459;42.268;23.112;2023-04-01T12:07:23;37.70;;;8.70;;
4889;SDS011;2459;42.268;23.112;2023-04-01T12:09:56;22.33;;;5.10;;
4889;SDS011;2459;42.268;23.112;2023-04-01T12:12:32;25.90;;;6.93;;
4889;SDS011;2459;42.268;23.112;2023-04-01T12:15:11;32.43;;;5.20;;
4889;SDS011;2459;42.268;23.112;2023-04-01T12:17:42;17.33;;;5.00;;
4889;SDS011;2459;42.268;23.112;2023-04-01T12:20:19;33.17;;;6.53;;
4889;SDS011;2459;42.268;23.112;2023-04-01T12:22:49;11.90;;;5.50;;
4889;SDS011;2459;42.268;23.112;2023-04-01T12:25:27;16.63;;;4.20;;
4889;SDS011;2459;42.268;23.112;2023-04-01T12:28:01;12.90;;;4.80;;
4889;SDS011;2459;42.268;23.112;2023-04-01T12:30:46;17.47;;;6.40;;
4889;SDS011;2459;42.268;23.112;2023-04-01T12:36:20;11.00;;;5.27;;
4889;SDS011;2459;42.268;23.112;2023-04-01T12:39:00;13.70;;;4.60;;
4889;SDS011;2459;42.268;23.112;2023-04-01T12:41:36;11.07;;;4.13;;
4889;SDS011;2459;42.268;23.112;2023-04-01T12:44:18;21.60;;;6.00;;
4889;SDS011;2459;42.268;23.112;2023-04-01T12:47:00;13.40;;;5.60;;
4889;SDS011;2459;42.268;23.112;2023-04-01T12:49:40;16.63;;;4.27;;
4889;SDS011;2459;42.268;23.112;2023-04-01T12:52:11;9.77;;;5.40;;
4889;SDS011;2459;42.268;23.112;2023-04-01T12:54:46;9.70;;;4.20;;
4889;SDS011;2459;42.268;23.112;2023-04-01T12:57:18;12.73;;;5.83;;
4889;SDS011;2459;42.268;23.112;2023-04-01T12:59:58;10.27;;;6.00;;
4889;SDS011;2459;42.268;23.112;2023-04-01T13:02:32;14.83;;;6.83;;
4889;SDS011;2459;42.268;23.112;2023-04-01T13:05:20;10.77;;;5.73;;
4889;SDS011;2459;42.268;23.112;2023-04-01T13:07:58;16.80;;;5.83;;
4889;SDS011;2459;42.268;23.112;2023-04-01T13:10:35;10.97;;;4.17;;
4889;SDS011;2459;42.268;23.112;2023-04-01T13:15:46;9.90;;;4.60;;
4889;SDS011;2459;42.268;23.112;2023-04-01T13:18:16;10.23;;;4.43;;
4889;SDS011;2459;42.268;23.112;2023-04-01T13:20:44;20.60;;;8.07;;
4889;SDS011;2459;42.268;23.112;2023-04-01T13:23:19;31.40;;;9.13;;
4889;SDS011;2459;42.268;23.112;2023-04-01T13:25:51;9.57;;;3.53;;
4889;SDS011;2459;42.268;23.112;2023-04-01T13:28:21;10.63;;;3.57;;
4889;SDS011;2459;42.268;23.112;2023-04-01T13:30:53;16.93;;;6.17;;
4889;SDS011;2459;42.268;23.112;2023-04-01T13:33:27;13.87;;;6.00;;
4889;SDS011;2459;42.268;23.112;2023-04-01T13:36:00;18.87;;;3.57;;
4889;SDS011;2459;42.268;23.112;2023-04-01T13:38:41;13.23;;;4.07;;
4889;SDS011;2459;42.268;23.112;2023-04-01T13:41:18;20.13;;;5.53;;
4889;SDS011;2459;42.268;23.112;2023-04-01T13:43:51;15.50;;;4.37;;
4889;SDS011;2459;42.268;23.112;2023-04-01T13:46:36;18.83;;;7.00;;
4889;SDS011;2459;42.268;23.112;2023-04-01T13:49:15;20.23;;;7.20;;
4889;SDS011;2459;42.268;23.112;2023-04-01T13:51:52;27.40;;;8.40;;
4889;SDS011;2459;42.268;23.112;2023-04-01T13:54:26;17.57;;;5.03;;
4889;SDS011;2459;42.268;23.112;2023-04-01T13:57:05;22.83;;;7.80;;
4889;SDS011;2459;42.268;23.112;2023-04-01T14:02:47;15.80;;;6.17;;
4889;SDS011;2459;42.268;23.112;2023-04-01T14:05:24;14.53;;;6.40;;
4889;SDS011;2459;42.268;23.112;2023-04-01T14:07:57;20.70;;;7.60;;
4889;SDS011;2459;42.268;23.112;2023-04-01T14:10:30;25.00;;;8.20;;
4889;SDS011;2459;42.268;23.112;2023-04-01T14:12:59;23.77;;;10.73;;
4889;SDS011;2459;42.268;23.112;2023-04-01T14:15:35;21.13;;;7.90;;
4889;SDS011;2459;42.268;23.112;2023-04-01T14:18:08;32.63;;;9.27;;
4889;SDS011;2459;42.268;23.112;2023-04-01T14:20:40;26.13;;;10.40;;
4889;SDS011;2459;42.268;23.112;2023-04-01T14:23:18;35.97;;;15.40;;
4889;SDS011;2459;42.268;23.112;2023-04-01T14:25:56;37.70;;;13.33;;
4889;SDS011;2459;42.268;23.112;2023-04-01T14:28:31;30.30;;;11.50;;
4889;SDS011;2459;42.268;23.112;2023-04-01T14:31:18;15.37;;;6.77;;
4889;SDS011;2459;42.268;23.112;2023-04-01T14:33:48;12.63;;;5.30;;
4889;SDS011;2459;42.268;23.112;2023-04-01T14:36:29;8.50;;;4.10;;
4889;SDS011;2459;42.268;23.112;2023-04-01T14:39:00;15.40;;;3.60;;
4889;SDS011;2459;42.268;23.112;2023-04-01T14:41:36;5.63;;;3.33;;
4889;SDS011;2459;42.268;23.112;2023-04-01T14:44:11;10.53;;;4.17;;
4889;SDS011;2459;42.268;23.112;2023-04-01T14:46:54;8.43;;;4.03;;
4889;SDS011;2459;42.268;23.112;2023-04-01T14:49:24;15.50;;;5.90;;
4889;SDS011;2459;42.268;23.112;2023-04-01T14:51:56;14.40;;;4.00;;
4889;SDS011;2459;42.268;23.112;2023-04-01T14:54:31;25.67;;;7.63;;
4889;SDS011;2459;42.268;23.112;2023-04-01T14:57:04;20.27;;;5.97;;
4889;SDS011;2459;42.268;23.112;2023-04-01T14:59:31;15.50;;;5.63;;
4889;SDS011;2459;42.268;23.112;2023-04-01T15:01:59;17.27;;;4.20;;
4889;SDS011;2459;42.268;23.112;2023-04-01T15:04:33;23.73;;;6.73;;
4889;SDS011;2459;42.268;23.112;2023-04-01T15:07:07;18.03;;;5.30;;
4889;SDS011;2459;42.268;23.112;2023-04-01T15:09:38;5.63;;;4.20;;
4889;SDS011;2459;42.268;23.112;2023-04-01T15:12:13;6.53;;;2.73;;
4889;SDS011;2459;42.268;23.112;2023-04-01T15:14:44;11.70;;;4.47;;
4889;SDS011;2459;42.268;23.112;2023-04-01T15:20:19;16.27;;;11.60;;
4889;SDS011;2459;42.268;23.112;2023-04-01T15:22:52;19.00;;;6.20;;
4889;SDS011;2459;42.268;23.112;2023-04-01T15:25:29;10.00;;;2.83;;
4889;SDS011;2459;42.268;23.112;2023-04-01T15:28:00;4.57;;;2.70;;
4889;SDS011;2459;42.268;23.112;2023-04-01T15:30:34;4.13;;;2.20;;
4889;SDS011;2459;42.268;23.112;2023-04-01T15:33:13;5.80;;;2.33;;
4889;SDS011;2459;42.268;23.112;2023-04-01T15:35:45;16.50;;;4.60;;
4889;SDS011;2459;42.268;23.112;2023-04-01T15:38:17;3.80;;;2.30;;
4889;SDS011;2459;42.268;23.112;2023-04-01T15:40:49;3.30;;;2.50;;
4889;SDS011;2459;42.268;23.112;2023-04-01T15:43:25;10.57;;;2.10;;
4889;SDS011;2459;42.268;23.112;2023-04-01T15:45:58;2.97;;;1.60;;
4889;SDS011;2459;42.268;23.112;2023-04-01T15:48:35;8.03;;;2.80;;
4889;SDS011;2459;42.268;23.112;2023-04-01T15:51:10;3.23;;;1.90;;
4889;SDS011;2459;42.268;23.112;2023-04-01T15:56:22;9.93;;;4.07;;
4889;SDS011;2459;42.268;23.112;2023-04-01T15:58:54;8.17;;;2.50;;
4889;SDS011;2459;42.268;23.112;2023-04-01T16:01:26;7.63;;;2.07;;
4889;SDS011;2459;42.268;23.112;2023-04-01T16:03:56;7.23;;;3.93;;
4889;SDS011;2459;42.268;23.112;2023-04-01T16:09:24;7.30;;;2.47;;
4889;SDS011;2459;42.268;23.112;2023-04-01T16:11:55;9.13;;;2.60;;
4889;SDS011;2459;42.268;23.112;2023-04-01T16:14:28;7.77;;;3.33;;
4889;SDS011;2459;42.268;23.112;2023-04-01T16:17:00;4.67;;;3.70;;
4889;SDS011;2459;42.268;23.112;2023-04-01T16:19:33;3.13;;;2.20;;
4889;SDS011;2459;42.268;23.112;2023-04-01T16:22:05;8.60;;;3.20;;
4889;SDS011;2459;42.268;23.112;2023-04-01T16:24:34;7.93;;;2.93;;
4889;SDS011;2459;42.268;23.112;2023-04-01T16:27:02;5.40;;;3.50;;
4889;SDS011;2459;42.268;23.112;2023-04-01T16:29:35;9.50;;;2.93;;
4889;SDS011;2459;42.268;23.112;2023-04-01T16:32:15;4.03;;;2.50;;